Weather History for Savanna, IL

Change the Weather History Date:

Wednesday, October 16, 2013

  Actual Average (KCWI) Record (KCWI)
Temperature  
Mean Temperature 50 °F -  
Max Temperature 52 °F 63 °F 85 °F (1950)
Min Temperature 49 °F 42 °F 27 °F (1952)
Degree Days  
Heating Degree Days 14    
Moisture  
Dew Point 45 °F    
Average Humidity 80    
Maximum Humidity 90    
Minimum Humidity 69    
Precipitation  
Precipitation 0.00 in - - ()
Sea Level Pressure  
Sea Level Pressure 29.90 in    
Wind  
Wind Speed 10 mph (WSW)    
Max Wind Speed 15 mph    
Max Gust Speed 21 mph    
Visibility 10 miles    
Events Rain    
Averages and records for this station are not official NWS values.
T = Trace of Precipitation, MM = Missing Value Source: NWS Daily Summary

Daily Weather History Graph

Daily Weather History Graph

Search for Another Location

Airport:

Trip Planner

Search our weather history database for the weather conditions in past years. The results will help you decide how hot, cold, wet, or windy it might be!

Date:

Astronomy

Oct. 16, 2013 Rise Set
Actual Time 7:14 AM CDT 6:16 PM CDT
Civil Twilight 6:46 AM CDT 6:44 PM CDT
Nautical Twilight 6:13 AM CDT 7:17 PM CDT
Astronomical Twilight 5:41 AM CDT 7:49 PM CDT
Moon 4:58 PM CDT (10/16) 4:40 AM CDT (10/16)
Length of Visible Light 11h 58m
Length of Day
11h 02m
Waxing Gibbous, 94% of the Moon is Illuminated
Oct 16
Waxing Gibbous
Oct 18
Full
Oct 26
Last Quarter
Nov 3
New
Nov 9
First Quarter

Hourly Weather History & Observations

Time (CDT) Temp. Dew Point Humidity Pressure Visibility Wind Dir Wind Speed Gust Speed Precip Events Conditions
12:15 AM 51.8 °F 42.1 °F 69% 29.86 in 10.0 mi SW 12.7 mph 18.4 mph N/A   Overcast
12:35 AM 51.6 °F 42.3 °F 70% 29.86 in 10.0 mi WSW 11.5 mph - N/A   Overcast
12:55 AM 51.4 °F 42.6 °F 72% 29.86 in 10.0 mi WSW 9.2 mph 19.6 mph N/A   Overcast
1:15 AM 51.4 °F 43.0 °F 73% 29.86 in 10.0 mi WSW 10.4 mph - N/A   Overcast
1:35 AM 51.4 °F 43.0 °F 73% 29.86 in 10.0 mi WSW 12.7 mph 17.3 mph N/A   Overcast
1:55 AM 51.4 °F 43.0 °F 73% 29.86 in 10.0 mi WSW 10.4 mph 19.6 mph N/A   Overcast
2:15 AM 51.3 °F 43.3 °F 74% 29.86 in 10.0 mi WSW 8.1 mph 16.1 mph N/A   Overcast
2:35 AM 51.1 °F 43.3 °F 75% 29.86 in 10.0 mi WSW 10.4 mph 19.6 mph N/A   Overcast
2:55 AM 51.1 °F 43.2 °F 74% 29.86 in 10.0 mi WSW 10.4 mph 17.3 mph N/A   Overcast
3:15 AM 50.9 °F 43.2 °F 75% 29.86 in 10.0 mi WSW 12.7 mph - N/A   Overcast
3:35 AM 50.9 °F 43.2 °F 75% 29.85 in 10.0 mi WSW 12.7 mph 20.7 mph N/A   Overcast
3:55 AM 50.9 °F 43.2 °F 75% 29.85 in 10.0 mi WSW 11.5 mph 17.3 mph N/A   Overcast
4:15 AM 50.9 °F 43.0 °F 74% 29.86 in 10.0 mi WSW 13.8 mph 19.6 mph N/A   Overcast
4:35 AM 50.9 °F 43.0 °F 74% 29.86 in 10.0 mi WSW 11.5 mph 18.4 mph N/A   Overcast
4:55 AM 50.5 °F 43.2 °F 76% 29.86 in 10.0 mi WSW 11.5 mph 18.4 mph N/A   Overcast
5:15 AM 50.2 °F 43.0 °F 76% 29.86 in 10.0 mi WSW 15.0 mph 20.7 mph N/A   Overcast
5:35 AM 50.2 °F 43.3 °F 77% 29.86 in 10.0 mi West 9.2 mph 18.4 mph N/A   Overcast
5:55 AM 50.2 °F 43.7 °F 78% 29.87 in 10.0 mi WSW 11.5 mph 17.3 mph N/A   Overcast
6:15 AM 50.0 °F 43.7 °F 79% 29.87 in 10.0 mi WSW 9.2 mph - N/A   Overcast
6:35 AM 49.8 °F 43.5 °F 79% 29.86 in 10.0 mi WSW 10.4 mph 18.4 mph N/A   Overcast
6:55 AM 49.5 °F 43.7 °F 81% 29.87 in 10.0 mi WSW 12.7 mph 18.4 mph N/A   Overcast
7:15 AM 49.1 °F 43.9 °F 82% 29.87 in 10.0 mi West 9.2 mph - N/A   Overcast
7:35 AM 49.1 °F 44.6 °F 84% 29.87 in 10.0 mi WSW 8.1 mph - N/A   Overcast
7:55 AM 49.1 °F 44.2 °F 83% 29.88 in 10.0 mi WSW 8.1 mph - N/A   Overcast
8:15 AM 49.3 °F 44.1 °F 82% 29.88 in 10.0 mi WSW 11.5 mph - N/A   Overcast
8:35 AM 49.3 °F 44.2 °F 83% 29.90 in 10.0 mi WSW 10.4 mph - N/A   Overcast
8:55 AM 49.5 °F 44.6 °F 83% 29.90 in 10.0 mi West 8.1 mph - N/A   Overcast
9:15 AM 49.6 °F 44.6 °F 83% 29.90 in 10.0 mi West 8.1 mph - N/A   Overcast
9:35 AM 50.0 °F 44.8 °F 82% 29.91 in 10.0 mi West 6.9 mph - N/A   Overcast
9:55 AM 50.0 °F 44.8 °F 82% 29.91 in 10.0 mi West 6.9 mph - N/A   Overcast
10:15 AM 50.2 °F 45.0 °F 82% 29.91 in 10.0 mi WSW 8.1 mph - N/A   Overcast
10:35 AM 50.0 °F 45.0 °F 83% 29.91 in 10.0 mi WSW 11.5 mph - N/A   Overcast
10:55 AM 50.2 °F 45.1 °F 83% 29.92 in 10.0 mi WSW 9.2 mph - N/A   Overcast
11:15 AM 50.4 °F 45.0 °F 82% 29.92 in 10.0 mi WSW 8.1 mph - N/A   Overcast
11:35 AM 50.9 °F 44.8 °F 80% 29.93 in 10.0 mi WSW 10.4 mph - N/A   Overcast
11:55 AM 51.1 °F 45.0 °F 80% 29.93 in 10.0 mi WSW 9.2 mph - N/A   Overcast
12:15 PM 51.4 °F 45.0 °F 79% 29.92 in 10.0 mi WSW 10.4 mph - N/A   Overcast
12:35 PM 51.4 °F 44.6 °F 77% 29.93 in 10.0 mi WSW 11.5 mph 17.3 mph N/A   Overcast
12:55 PM 51.6 °F 44.8 °F 77% 29.92 in 10.0 mi SW 8.1 mph - N/A   Overcast
1:15 PM 51.4 °F 45.0 °F 79% 29.92 in 10.0 mi WSW 11.5 mph - N/A   Overcast
1:35 PM 51.3 °F 45.1 °F 80% 29.91 in 10.0 mi WSW 10.4 mph - N/A   Overcast
1:55 PM 51.3 °F 45.1 °F 80% 29.91 in 10.0 mi WSW 10.4 mph 18.4 mph N/A   Overcast
2:15 PM 51.8 °F 44.8 °F 77% 29.91 in 10.0 mi West 9.2 mph - N/A   Overcast
2:35 PM 51.3 °F 45.0 °F 79% 29.91 in 10.0 mi WSW 8.1 mph - N/A   Overcast
2:55 PM 52.0 °F 45.0 °F 77% 29.91 in 10.0 mi West 8.1 mph - N/A   Overcast
3:15 PM 51.8 °F 44.6 °F 76% 29.91 in 10.0 mi WSW 9.2 mph - N/A   Overcast
3:35 PM 51.8 °F 44.2 °F 75% 29.92 in 10.0 mi WSW 10.4 mph - N/A   Overcast
3:55 PM 51.8 °F 44.4 °F 76% 29.92 in 10.0 mi WSW 9.2 mph - N/A   Overcast
4:15 PM 51.4 °F 44.6 °F 77% 29.92 in 10.0 mi West 9.2 mph - N/A   Overcast
4:35 PM 50.2 °F 45.5 °F 84% 29.92 in 7.0 mi West 8.1 mph - N/A   Overcast
4:55 PM 50.9 °F 45.0 °F 80% 29.92 in 10.0 mi WSW 5.8 mph - N/A   Overcast
5:15 PM 51.1 °F 44.6 °F 78% 29.92 in 10.0 mi WSW 6.9 mph - N/A   Overcast
5:35 PM 51.1 °F 44.6 °F 78% 29.92 in 10.0 mi West 5.8 mph - N/A   Overcast
5:55 PM 51.1 °F 44.4 °F 78% 29.92 in 10.0 mi West 6.9 mph - N/A   Overcast
6:15 PM 50.7 °F 44.6 °F 80% 29.92 in 10.0 mi West 5.8 mph - N/A   Overcast
6:35 PM 50.4 °F 44.6 °F 81% 29.93 in 10.0 mi West 9.2 mph - N/A   Overcast
6:55 PM 50.2 °F 45.0 °F 82% 29.93 in 10.0 mi West 5.8 mph - N/A   Overcast
7:15 PM 50.2 °F 45.0 °F 82% 29.94 in 10.0 mi WSW 5.8 mph - N/A   Overcast
7:35 PM 50.0 °F 45.5 °F 85% 29.94 in 10.0 mi West 6.9 mph - N/A   Overcast
7:55 PM 50.0 °F 45.5 °F 85% 29.94 in 10.0 mi WSW 6.9 mph - N/A   Overcast
8:35 PM 49.6 °F 45.7 °F 86% 29.95 in 10.0 mi WSW 4.6 mph - N/A Rain Light Rain
8:55 PM 49.6 °F 45.9 °F 87% 29.96 in 10.0 mi WSW 9.2 mph - N/A Rain Light Rain
9:15 PM 49.8 °F 46.0 °F 87% 29.96 in 10.0 mi West 4.6 mph - N/A   Overcast
9:35 PM 49.6 °F 46.0 °F 87% 29.96 in 10.0 mi West 6.9 mph - N/A   Overcast
9:55 PM 49.6 °F 46.0 °F 87% 29.96 in 10.0 mi West 5.8 mph - N/A   Overcast
10:15 PM 49.5 °F 46.4 °F 89% 29.96 in 10.0 mi West 4.6 mph - N/A   Overcast
10:35 PM 49.5 °F 46.4 °F 89% 29.96 in 10.0 mi West 3.5 mph - N/A   Overcast
10:55 PM 49.3 °F 46.4 °F 90% 29.96 in 10.0 mi West 4.6 mph - N/A   Overcast
11:15 PM 49.1 °F 46.4 °F 90% 29.96 in 4.0 mi WSW 5.8 mph - N/A   Overcast
11:35 PM 49.1 °F 46.4 °F 90% 29.96 in 7.0 mi WSW 4.6 mph - N/A   Overcast
11:55 PM 49.1 °F 46.4 °F 90% 29.94 in 10.0 mi West 3.5 mph - N/A   Overcast